Time;durP1;ratioP1;P1;durP2;ratioP2;P2;SDS_P1;SDS_P2;PMS_P1;PMS_P2;Temp;Humidity;BMP_temperature;BMP_pressure;BME280_temperature;BME280_humidity;BME280_pressure;Samples;Min_cycle;Max_cycle;Signal;HPM_P1;HPM_P2
2022/03/19 00:00:42;;;;;;;;;;;;;;;7.83;66.76;102404.03;4996024;28;19925;-65
2022/03/19 00:03:26;;;;;;;;;;;;;;;7.82;66.95;102403.91;4996574;28;19968;-65
2022/03/19 00:06:10;;;;;;;;;;;;;;;7.80;66.96;102390.91;4995095;28;19923;-64
2022/03/19 00:08:55;;;;;;;;;;;;;;;7.83;66.80;102392.78;4995188;28;20297;-65
2022/03/19 00:11:40;;;;;;;;;;;;;;;7.81;66.89;102387.53;4996216;28;19945;-64
2022/03/19 00:14:24;;;;;;;;;;;;;;;7.83;66.63;102387.63;4994984;28;20003;-65
2022/03/19 00:17:10;;;;;;;;;;;;;;;7.78;67.12;102397.66;4994631;28;19925;-64
2022/03/19 00:19:54;;;;;;;;;;;;;;;7.79;66.95;102386.53;4995684;28;19971;-64
2022/03/19 00:22:38;;;;;;;;;;;;;;;7.79;66.81;102391.69;4994589;28;19925;-65
2022/03/19 00:25:22;;;;;;;;;;;;;;;7.77;66.85;102391.59;4994214;28;19928;-64
2022/03/19 00:28:07;;;;;;;;;;;;;;;7.76;66.82;102397.56;4994217;28;19924;-65
2022/03/19 00:30:51;;;;;;;;;;;;;;;7.75;67.08;102389.69;4995255;28;19925;-64
2022/03/19 00:33:35;;;;;;;;;;;;;;;7.74;66.76;102396.56;4995701;28;19925;-64
2022/03/19 00:36:19;;;;;;;;;;;;;;;7.76;66.93;102400.16;4994164;28;20396;-65
2022/03/19 00:39:03;;;;;;;;;;;;;;;7.75;66.80;102398.34;4995542;28;20404;-64
2022/03/19 00:41:47;;;;;;;;;;;;;;;7.76;66.95;102391.50;4994729;28;20441;-64
2022/03/19 00:44:31;;;;;;;;;;;;;;;7.74;66.95;102396.56;4994165;28;19964;-64
2022/03/19 00:47:15;;;;;;;;;;;;;;;7.73;66.81;102394.78;4994983;28;20439;-65
2022/03/19 00:49:59;;;;;;;;;;;;;;;7.72;66.90;102397.25;4994911;28;19964;-64
2022/03/19 00:52:43;;;;;;;;;;;;;;;7.73;66.81;102388.69;4994921;28;20447;-64
2022/03/19 00:55:26;;;;;;;;;;;;;;;7.70;66.99;102389.41;4995156;28;19924;-64
2022/03/19 00:58:11;;;;;;;;;;;;;;;7.69;67.16;102397.06;4995007;28;19925;-64
2022/03/19 01:00:55;;;;;;;;;;;;;;;7.69;66.94;102395.38;4995276;28;20009;-65
2022/03/19 01:03:39;;;;;;;;;;;;;;;7.70;67.14;102392.00;4994725;28;19964;-65
2022/03/19 01:06:23;;;;;;;;;;;;;;;7.70;66.85;102386.81;4994847;28;20436;-64
2022/03/19 01:09:07;;;;;;;;;;;;;;;7.68;67.01;102395.28;4994534;28;19949;-64
2022/03/19 01:11:51;;;;;;;;;;;;;;;7.68;66.67;102387.53;4993610;28;19924;-64
2022/03/19 01:14:36;;;;;;;;;;;;;;;7.67;67.05;102383.16;4994760;28;20391;-64
2022/03/19 01:17:19;;;;;;;;;;;;;;;7.67;66.99;102386.63;4994533;28;19925;-64
2022/03/19 01:20:03;;;;;;;;;;;;;;;7.66;67.12;102382.25;4994469;28;19925;-64
2022/03/19 01:22:48;;;;;;;;;;;;;;;7.69;66.91;102382.47;4994632;28;20293;-64
2022/03/19 01:25:32;;;;;;;;;;;;;;;7.68;66.85;102372.94;4994623;28;19933;-64
2022/03/19 01:28:16;;;;;;;;;;;;;;;7.67;67.18;102378.88;4993639;28;19965;-64
2022/03/19 01:31:00;;;;;;;;;;;;;;;7.67;67.16;102384.03;4994574;28;20017;-64
2022/03/19 01:33:44;;;;;;;;;;;;;;;7.68;66.87;102385.81;4994216;28;19925;-64
2022/03/19 01:36:28;;;;;;;;;;;;;;;7.67;67.10;102380.59;4993957;28;19972;-64
2022/03/19 01:39:12;;;;;;;;;;;;;;;7.67;67.18;102381.47;4994886;28;20020;-64
2022/03/19 01:41:56;;;;;;;;;;;;;;;7.65;66.92;102374.41;4998113;28;19976;-65
2022/03/19 01:44:40;;;;;;;;;;;;;;;7.67;67.20;102367.69;4998779;28;19925;-64
2022/03/19 01:47:25;;;;;;;;;;;;;;;7.67;66.81;102370.25;4998518;28;19924;-65
2022/03/19 01:50:10;;;;;;;;;;;;;;;7.63;67.00;102369.13;4998360;28;19924;-64
2022/03/19 01:52:54;;;;;;;;;;;;;;;7.62;66.89;102360.50;4997830;28;20285;-64
2022/03/19 01:55:38;;;;;;;;;;;;;;;7.62;67.02;102359.63;4997167;28;20029;-65
2022/03/19 01:58:23;;;;;;;;;;;;;;;7.62;67.06;102357.94;4997457;28;19943;-64
2022/03/19 02:01:07;;;;;;;;;;;;;;;7.61;66.94;102356.16;4996940;28;19925;-64
2022/03/19 02:03:51;;;;;;;;;;;;;;;7.62;67.02;102364.81;4997433;28;19925;-65
2022/03/19 02:06:35;;;;;;;;;;;;;;;7.62;67.02;102359.63;4997934;28;20428;-64
2022/03/19 02:09:19;;;;;;;;;;;;;;;7.62;67.16;102359.63;4997936;28;19924;-65
2022/03/19 02:12:04;;;;;;;;;;;;;;;7.60;67.01;102361.22;4996564;28;20403;-64
2022/03/19 02:14:48;;;;;;;;;;;;;;;7.61;67.26;102360.44;4997832;28;19964;-65
2022/03/19 02:17:32;;;;;;;;;;;;;;;7.60;67.16;102350.91;4998106;28;19968;-64
2022/03/19 02:20:16;;;;;;;;;;;;;;;7.61;67.03;102350.09;4997988;28;20072;-65
2022/03/19 02:26:03;;;;;;;;;;;;;;;7.61;66.94;102352.69;4997536;28;19928;-65
2022/03/19 02:28:47;;;;;;;;;;;;;;;7.59;66.95;102349.97;4997405;28;19924;-64
2022/03/19 02:31:31;;;;;;;;;;;;;;;7.61;67.24;102344.94;4997674;28;19924;-64
2022/03/19 02:34:15;;;;;;;;;;;;;;;7.60;66.94;102340.56;4998045;28;19972;-65
2022/03/19 02:36:59;;;;;;;;;;;;;;;7.59;67.44;102339.66;4996584;28;19946;-65
2022/03/19 02:39:42;;;;;;;;;;;;;;;7.58;67.11;102330.13;4997329;28;19948;-64
2022/03/19 02:42:27;;;;;;;;;;;;;;;7.58;67.10;102332.72;4997432;28;20305;-65
2022/03/19 02:45:10;;;;;;;;;;;;;;;7.58;67.26;102326.69;4997169;28;19971;-64
2022/03/19 02:47:57;;;;;;;;;;;;;;;7.56;67.08;102329.13;4997220;28;19925;-64
2022/03/19 02:50:41;;;;;;;;;;;;;;;7.56;67.07;102318.81;4996890;28;19968;-65
2022/03/19 02:53:25;;;;;;;;;;;;;;;7.55;67.24;102322.19;4996333;28;19924;-64
2022/03/19 02:56:09;;;;;;;;;;;;;;;7.55;67.13;102322.19;4997236;28;20280;-64
2022/03/19 02:58:53;;;;;;;;;;;;;;;7.54;67.06;102316.94;4997149;28;20368;-65
2022/03/19 03:01:37;;;;;;;;;;;;;;;7.55;67.29;102319.59;4996220;28;20028;-64
2022/03/19 03:04:21;;;;;;;;;;;;;;;7.53;67.06;102318.63;4997318;28;19925;-65
2022/03/19 03:07:05;;;;;;;;;;;;;;;7.52;67.21;102318.53;4996317;28;20434;-64
2022/03/19 03:09:49;;;;;;;;;;;;;;;7.52;67.22;102321.09;4995978;28;19929;-64
2022/03/19 03:12:34;;;;;;;;;;;;;;;7.50;67.29;102314.94;4996644;28;20001;-65
2022/03/19 03:15:18;;;;;;;;;;;;;;;7.50;66.83;102315.84;4996722;28;19924;-65
2022/03/19 03:18:03;;;;;;;;;;;;;;;7.50;67.05;102315.84;4997086;28;19924;-64
2022/03/19 03:20:47;;;;;;;;;;;;;;;7.50;67.28;102315.84;4996800;28;20403;-64
2022/03/19 03:23:31;;;;;;;;;;;;;;;7.48;67.09;102317.44;4995540;28;20459;-65
2022/03/19 03:26:16;;;;;;;;;;;;;;;7.48;67.10;102314.84;4996830;28;20015;-64
2022/03/19 03:29:00;;;;;;;;;;;;;;;7.50;67.11;102318.44;4995753;28;19925;-64
2022/03/19 03:31:44;;;;;;;;;;;;;;;7.47;67.09;102321.69;4996870;28;19972;-64
2022/03/19 03:34:28;;;;;;;;;;;;;;;7.47;67.14;102316.53;4996261;28;19924;-64
2022/03/19 03:37:11;;;;;;;;;;;;;;;7.46;67.33;102311.28;4996044;28;20005;-64
2022/03/19 03:39:55;;;;;;;;;;;;;;;7.47;66.96;102329.44;4996434;28;19924;-64
2022/03/19 03:42:41;;;;;;;;;;;;;;;7.45;67.21;102314.66;4996164;28;19924;-64
2022/03/19 03:45:31;;;;;;;;;;;;;;;7.45;67.24;102318.16;4996198;28;19924;-65
2022/03/19 03:48:15;;;;;;;;;;;;;;;7.45;67.12;102319.81;4996554;28;19925;-65
2022/03/19 03:50:59;;;;;;;;;;;;;;;7.44;67.10;102313.78;4996020;28;19972;-64
2022/03/19 03:53:44;;;;;;;;;;;;;;;7.43;67.12;102301.66;4995445;28;19971;-64
2022/03/19 03:56:28;;;;;;;;;;;;;;;7.43;67.35;102303.34;4996371;28;20447;-64
2022/03/19 03:59:11;;;;;;;;;;;;;;;7.40;67.22;102305.72;4996087;28;20395;-64
2022/03/19 04:01:55;;;;;;;;;;;;;;;7.40;67.43;102300.53;4995766;28;20416;-65
2022/03/19 04:04:39;;;;;;;;;;;;;;;7.41;67.34;102292.00;4995633;28;20002;-64
2022/03/19 04:07:23;;;;;;;;;;;;;;;7.39;67.38;102299.66;4995731;28;19960;-64
2022/03/19 04:10:07;;;;;;;;;;;;;;;7.38;67.42;102291.84;4995763;28;20443;-64
2022/03/19 04:12:51;;;;;;;;;;;;;;;7.39;67.12;102303.94;4995337;28;19924;-64
2022/03/19 04:15:35;;;;;;;;;;;;;;;7.39;67.17;102298.78;4994286;28;19960;-65
2022/03/19 04:18:19;;;;;;;;;;;;;;;7.37;67.14;102301.25;4994889;28;19972;-64
2022/03/19 04:21:03;;;;;;;;;;;;;;;7.36;67.42;102301.16;4994477;28;20319;-64
2022/03/19 04:23:47;;;;;;;;;;;;;;;7.34;67.39;102295.00;4995591;28;19941;-64
2022/03/19 04:26:31;;;;;;;;;;;;;;;7.34;67.46;102293.31;4995931;28;19925;-64
2022/03/19 04:29:15;;;;;;;;;;;;;;;7.32;67.08;102290.63;4995099;28;20344;-64
2022/03/19 04:31:59;;;;;;;;;;;;;;;7.32;67.26;102290.63;4995287;28;19924;-64
2022/03/19 04:34:43;;;;;;;;;;;;;;;7.34;67.32;102297.59;4995800;28;20304;-64
2022/03/19 04:37:27;;;;;;;;;;;;;;;7.32;67.12;102297.47;4994698;28;20336;-64
2022/03/19 04:40:11;;;;;;;;;;;;;;;7.31;67.49;102294.00;4994499;28;19956;-64
2022/03/19 04:42:55;;;;;;;;;;;;;;;7.31;67.29;102286.28;4995224;28;20324;-65
2022/03/19 04:45:40;;;;;;;;;;;;;;;7.31;67.48;102295.72;4995079;28;19925;-64
2022/03/19 04:48:24;;;;;;;;;;;;;;;7.29;67.25;102287.84;4994315;28;19924;-64
2022/03/19 04:51:08;;;;;;;;;;;;;;;7.29;67.03;102287.84;4995425;28;20316;-65
2022/03/19 04:53:52;;;;;;;;;;;;;;;7.28;67.15;102295.50;4994458;28;20392;-64
2022/03/19 04:56:36;;;;;;;;;;;;;;;7.28;67.07;102287.78;4995423;28;20007;-64
2022/03/19 04:59:20;;;;;;;;;;;;;;;7.25;67.19;102285.84;4993857;28;19924;-64
2022/03/19 05:02:04;;;;;;;;;;;;;;;7.24;67.07;102290.94;4994751;28;19925;-65
2022/03/19 05:04:48;;;;;;;;;;;;;;;7.23;67.26;102283.97;4994137;28;20396;-64
2022/03/19 05:07:35;;;;;;;;;;;;;;;7.24;67.35;102288.34;4993733;28;19979;-64
2022/03/19 05:13:22;;;;;;;;;;;;;;;7.22;67.47;102297.66;4995044;28;20425;-65
2022/03/19 05:16:06;;;;;;;;;;;;;;;7.22;67.56;102292.50;4993847;28;20057;-64
2022/03/19 05:18:49;;;;;;;;;;;;;;;7.20;67.62;102289.84;4994584;28;20293;-64
2022/03/19 05:21:34;;;;;;;;;;;;;;;7.21;67.45;102289.06;4994776;28;19927;-65
2022/03/19 05:24:19;;;;;;;;;;;;;;;7.20;67.24;102291.50;4993560;28;20460;-64
2022/03/19 05:27:03;;;;;;;;;;;;;;;7.20;67.44;102291.50;4994447;28;20005;-64
2022/03/19 05:29:46;;;;;;;;;;;;;;;7.19;67.32;102289.72;4994674;28;19980;-64
2022/03/19 05:32:30;;;;;;;;;;;;;;;7.16;67.38;102283.56;4994395;28;20461;-65
2022/03/19 05:35:16;;;;;;;;;;;;;;;7.16;67.67;102288.72;4994499;28;20385;-64
2022/03/19 05:38:00;;;;;;;;;;;;;;;7.14;67.48;102287.75;4993043;28;19929;-64
2022/03/19 05:40:44;;;;;;;;;;;;;;;7.14;67.60;102295.50;4993588;28;19963;-64
2022/03/19 05:43:29;;;;;;;;;;;;;;;7.14;67.52;102292.91;4994484;28;19964;-64
2022/03/19 05:46:13;;;;;;;;;;;;;;;7.14;67.26;102294.59;4993282;28;20411;-65
2022/03/19 05:48:57;;;;;;;;;;;;;;;7.11;67.10;102290.13;4994258;28;19924;-65
2022/03/19 05:51:41;;;;;;;;;;;;;;;7.10;67.43;102284.84;4993232;28;19952;-64
2022/03/19 05:54:26;;;;;;;;;;;;;;;7.11;67.32;102292.72;4993121;28;19924;-64
2022/03/19 05:57:10;;;;;;;;;;;;;;;7.09;67.36;102294.28;4994430;28;19924;-64
2022/03/19 05:59:54;;;;;;;;;;;;;;;7.09;67.54;102291.72;4993256;28;19925;-64
2022/03/19 06:02:39;;;;;;;;;;;;;;;7.08;67.76;102289.03;4993173;28;19979;-64
2022/03/19 06:05:23;;;;;;;;;;;;;;;7.09;67.37;102289.13;4993402;28;19992;-64
2022/03/19 06:08:07;;;;;;;;;;;;;;;7.08;67.37;102295.06;4993677;28;19968;-64
2022/03/19 06:10:51;;;;;;;;;;;;;;;7.07;67.38;102292.41;4993720;28;19949;-64
2022/03/19 06:13:35;;;;;;;;;;;;;;;7.07;67.39;102297.56;4994035;28;19924;-64
2022/03/19 06:16:19;;;;;;;;;;;;;;;7.08;67.47;102300.22;4994098;28;19925;-64
2022/03/19 06:19:03;;;;;;;;;;;;;;;7.04;67.30;102311.13;4993969;28;19956;-65
2022/03/19 06:21:47;;;;;;;;;;;;;;;7.04;67.41;102302.50;4994319;28;19964;-64
2022/03/19 06:24:31;;;;;;;;;;;;;;;7.03;67.59;102305.88;4993822;28;19924;-64
2022/03/19 06:27:15;;;;;;;;;;;;;;;7.03;67.41;102313.63;4996636;28;19972;-64
2022/03/19 06:29:59;;;;;;;;;;;;;;;7.05;67.86;102307.75;4996999;28;19924;-65
2022/03/19 06:32:43;;;;;;;;;;;;;;;7.04;67.71;102305.09;4997045;28;19928;-64
2022/03/19 06:38:29;;;;;;;;;;;;;;;7.04;67.50;102318.00;4997373;28;19976;-64
2022/03/19 06:41:14;;;;;;;;;;;;;;;7.03;67.80;102311.91;4997116;28;19964;-64
2022/03/19 06:43:58;;;;;;;;;;;;;;;7.07;67.44;102318.19;4996895;28;20424;-66
2022/03/19 06:46:42;;;;;;;;;;;;;;;7.01;67.54;102311.81;4997849;28;19951;-64
2022/03/19 06:49:28;;;;;;;;;;;;;;;7.04;67.85;102320.56;4997783;28;19924;-64
2022/03/19 06:52:12;;;;;;;;;;;;;;;7.03;67.60;102317.06;4996405;28;19924;-64
2022/03/19 06:54:56;;;;;;;;;;;;;;;6.99;67.78;102303.09;4997208;28;19940;-64
2022/03/19 06:57:40;;;;;;;;;;;;;;;7.03;67.79;102311.91;4997104;28;20051;-63
2022/03/19 07:00:24;;;;;;;;;;;;;;;7.01;67.46;102310.91;4996504;28;19925;-65
2022/03/19 07:03:09;;;;;;;;;;;;;;;7.03;67.39;102311.91;4997484;28;19932;-64
2022/03/19 07:05:52;;;;;;;;;;;;;;;7.04;68.01;102315.41;4996789;28;19924;-64
2022/03/19 07:08:37;;;;;;;;;;;;;;;7.05;67.46;102301.72;4996676;28;19924;-65
2022/03/19 07:11:21;;;;;;;;;;;;;;;7.03;67.42;102301.59;4996553;28;19925;-65
2022/03/19 07:14:05;;;;;;;;;;;;;;;7.04;67.63;102305.09;4995951;28;20281;-64
2022/03/19 07:16:49;;;;;;;;;;;;;;;7.04;67.39;102300.81;4997284;28;20060;-64
2022/03/19 07:19:34;;;;;;;;;;;;;;;7.04;67.43;102305.09;4996106;28;19928;-65
2022/03/19 07:22:18;;;;;;;;;;;;;;;7.05;67.44;102299.16;4997145;28;19976;-64
2022/03/19 07:25:01;;;;;;;;;;;;;;;7.07;67.48;102300.16;4996692;28;19972;-65
2022/03/19 07:27:46;;;;;;;;;;;;;;;7.04;67.42;102303.41;4995370;28;19968;-64
2022/03/19 07:30:31;;;;;;;;;;;;;;;7.06;67.58;102295.78;4996398;28;19924;-64
2022/03/19 07:33:15;;;;;;;;;;;;;;;7.07;67.84;102297.56;4996528;28;19988;-64
2022/03/19 07:35:59;;;;;;;;;;;;;;;7.07;67.55;102295.00;4995494;28;19924;-64
2022/03/19 07:38:43;;;;;;;;;;;;;;;7.05;67.49;102287.13;4995718;28;19976;-64
2022/03/19 07:41:46;;;;;;;;;;;;;;;7.07;67.60;102285.56;4996445;28;19979;-64
2022/03/19 07:44:31;;;;;;;;;;;;;;;7.09;67.42;102283.06;4996335;28;20369;-64
2022/03/19 07:47:15;;;;;;;;;;;;;;;7.10;67.65;102279.69;4996586;28;19924;-64
2022/03/19 07:50:00;;;;;;;;;;;;;;;7.10;67.43;102284.84;4996411;28;19980;-65
2022/03/19 07:52:43;;;;;;;;;;;;;;;7.11;67.52;102281.47;4996266;28;19975;-64
2022/03/19 07:55:28;;;;;;;;;;;;;;;7.12;67.22;102278.13;4995240;28;20060;-64
2022/03/19 07:58:11;;;;;;;;;;;;;;;7.12;67.65;102275.53;4996211;28;20322;-64
2022/03/19 08:00:56;;;;;;;;;;;;;;;7.13;67.46;102270.50;4994966;28;20289;-65
2022/03/19 08:03:40;;;;;;;;;;;;;;;7.14;67.71;102271.38;4996352;28;19940;-65
2022/03/19 08:06:24;;;;;;;;;;;;;;;7.13;67.48;102264.44;4996029;28;19978;-64
2022/03/19 08:09:09;;;;;;;;;;;;;;;7.15;67.44;102268.91;4995874;28;19924;-64
2022/03/19 08:11:53;;;;;;;;;;;;;;;7.15;67.41;102262.84;4994706;28;20388;-64
2022/03/19 08:14:37;;;;;;;;;;;;;;;7.16;67.21;102270.66;4996036;28;19925;-64
2022/03/19 08:17:22;;;;;;;;;;;;;;;7.17;67.31;102263.84;4995327;28;19967;-64
2022/03/19 08:20:08;;;;;;;;;;;;;;;7.18;67.76;102262.16;4996119;28;19964;-64
2022/03/19 08:22:54;;;;;;;;;;;;;;;7.20;67.41;102268.31;4994909;28;20448;-64
2022/03/19 08:25:39;;;;;;;;;;;;;;;7.20;67.26;102260.56;4995082;28;20447;-64
2022/03/19 08:28:24;;;;;;;;;;;;;;;7.21;67.58;102263.25;4994489;28;19928;-64
2022/03/19 08:31:08;;;;;;;;;;;;;;;7.21;67.47;102260.69;4995639;28;20016;-64
2022/03/19 08:33:52;;;;;;;;;;;;;;;7.21;67.41;102263.25;4995291;28;19924;-64
2022/03/19 08:36:35;;;;;;;;;;;;;;;7.23;67.49;102265.94;4995372;28;19924;-65
2022/03/19 08:42:23;;;;;;;;;;;;;;;7.26;67.22;102256.69;4995517;28;19925;-64
2022/03/19 08:45:08;;;;;;;;;;;;;;;7.28;67.28;102256.81;4993780;28;19976;-61
2022/03/19 08:47:52;;;;;;;;;;;;;;;7.30;67.08;102258.69;4994256;28;20281;-62
2022/03/19 08:50:36;;;;;;;;;;;;;;;7.32;67.31;102257.09;4994749;28;19925;-63
2022/03/19 08:53:20;;;;;;;;;;;;;;;7.35;67.45;102250.38;4994008;28;19924;-64
2022/03/19 08:56:04;;;;;;;;;;;;;;;7.34;67.21;102243.41;4994552;28;19928;-63
2022/03/19 08:58:48;;;;;;;;;;;;;;;7.37;67.09;102247.06;4995097;28;19924;-64
2022/03/19 09:01:32;;;;;;;;;;;;;;;7.39;67.15;102242.91;4994760;28;19925;-64
2022/03/19 09:04:16;;;;;;;;;;;;;;;7.40;67.23;102241.22;4994680;28;19924;-64
2022/03/19 09:07:00;;;;;;;;;;;;;;;7.40;67.30;102239.53;4993799;28;19924;-63
2022/03/19 09:09:44;;;;;;;;;;;;;;;7.43;67.35;102229.41;4995015;28;19929;-64
2022/03/19 09:12:28;;;;;;;;;;;;;;;7.45;67.32;102235.56;4994808;28;19925;-64
2022/03/19 09:15:13;;;;;;;;;;;;;;;7.47;67.42;102231.38;4994888;28;19925;-64
2022/03/19 09:17:57;;;;;;;;;;;;;;;7.51;67.38;102227.31;4993542;28;19988;-64
2022/03/19 09:20:40;;;;;;;;;;;;;;;7.53;67.36;102227.41;4993609;28;20441;-63
2022/03/19 09:23:25;;;;;;;;;;;;;;;7.58;67.13;102231.19;4994651;28;20384;-63
2022/03/19 09:26:08;;;;;;;;;;;;;;;7.58;67.12;102219.16;4993561;28;20443;-63
2022/03/19 09:28:52;;;;;;;;;;;;;;;7.62;67.21;102222.84;4993972;28;19925;-63
2022/03/19 09:31:36;;;;;;;;;;;;;;;7.64;67.08;102220.34;4993710;28;20419;-63
2022/03/19 09:34:20;;;;;;;;;;;;;;;7.64;67.12;102212.63;4994941;28;19925;-64
2022/03/19 09:37:04;;;;;;;;;;;;;;;7.67;67.06;102215.38;4994817;28;19963;-63
2022/03/19 09:39:49;;;;;;;;;;;;;;;7.71;67.12;102212.19;4994309;28;20424;-64
2022/03/19 09:42:33;;;;;;;;;;;;;;;7.73;66.95;102205.44;4993541;28;19945;-64
2022/03/19 09:45:18;;;;;;;;;;;;;;;7.74;67.19;102210.72;4994452;28;19924;-63
2022/03/19 09:48:02;;;;;;;;;;;;;;;7.75;67.01;102203.84;4993936;28;20301;-65
2022/03/19 09:50:49;;;;;;;;;;;;;;;7.76;66.83;102180.72;4994616;28;19925;-64
2022/03/19 09:53:33;;;;;;;;;;;;;;;7.80;67.16;102188.63;4993751;28;19925;-63
2022/03/19 09:56:17;;;;;;;;;;;;;;;7.81;66.94;102191.31;4994365;28;20057;-64
2022/03/19 09:59:01;;;;;;;;;;;;;;;7.83;67.00;102179.41;4993738;28;19924;-63
2022/03/19 10:01:45;;;;;;;;;;;;;;;7.84;66.51;102177.69;4995275;28;19963;-64
2022/03/19 10:04:30;;;;;;;;;;;;;;;7.84;66.72;102170.88;4998493;28;19925;-64
2022/03/19 10:10:30;;;;;;;;;;;;;;;7.86;66.92;102169.25;4998077;28;19929;-64
2022/03/19 10:13:14;;;;;;;;;;;;;;;7.87;66.63;102165.88;4997002;28;20031;-65
2022/03/19 10:15:58;;;;;;;;;;;;;;;7.87;66.75;102168.44;4997611;28;19992;-64
2022/03/19 10:18:42;;;;;;;;;;;;;;;7.89;66.96;102161.69;4998129;28;19972;-65
2022/03/19 10:21:27;;;;;;;;;;;;;;;7.92;66.63;102151.56;4998249;28;19940;-65
2022/03/19 10:24:24;;;;;;;;;;;;;;;7.93;66.90;102158.50;4998149;28;19968;-64
2022/03/19 10:27:16;;;;;;;;;;;;;;;7.95;66.62;102152.53;4996676;28;19972;-64
2022/03/19 10:30:11;;;;;;;;;;;;;;;7.95;66.64;102147.38;4997287;28;20296;-64
2022/03/19 10:32:56;;;;;;;;;;;;;;;7.97;66.60;102148.38;4997096;28;19925;-63
2022/03/19 10:35:41;;;;;;;;;;;;;;;7.98;66.46;102145.00;4997071;28;19924;-64
2022/03/19 10:38:26;;;;;;;;;;;;;;;7.99;66.42;102136.44;4997476;28;19925;-64
2022/03/19 10:41:11;;;;;;;;;;;;;;;7.98;66.25;102137.25;4997483;28;19972;-64
2022/03/19 10:43:55;;;;;;;;;;;;;;;7.98;66.45;102126.91;4996449;28;19972;-64
2022/03/19 10:46:42;;;;;;;;;;;;;;;7.98;66.55;102121.75;4995948;28;19924;-64
2022/03/19 10:49:27;;;;;;;;;;;;;;;8.01;66.46;102117.66;4996569;28;19945;-63
2022/03/19 10:52:14;;;;;;;;;;;;;;;8.01;66.35;102117.66;4996329;28;19924;-64
2022/03/19 10:55:03;;;;;;;;;;;;;;;8.04;66.35;102115.25;4997619;28;20285;-65
2022/03/19 10:57:47;;;;;;;;;;;;;;;8.06;66.18;102107.59;4996461;28;19925;-64
2022/03/19 11:00:33;;;;;;;;;;;;;;;8.05;66.22;102109.28;4996282;28;19967;-64
2022/03/19 11:03:25;;;;;;;;;;;;;;;8.05;66.11;102098.97;4997071;28;19924;-64
2022/03/19 11:06:09;;;;;;;;;;;;;;;8.05;66.28;102098.97;4995995;28;19971;-64
2022/03/19 11:08:55;;;;;;;;;;;;;;;8.06;65.88;102094.66;4995721;28;19925;-63
2022/03/19 11:11:58;;;;;;;;;;;;;;;8.07;66.09;102086.13;4996319;28;20016;-65
2022/03/19 11:14:43;;;;;;;;;;;;;;;8.08;65.88;102087.91;4996100;28;20019;-63
2022/03/19 11:17:30;;;;;;;;;;;;;;;8.09;65.89;102079.38;4996211;28;19925;-64
2022/03/19 11:20:14;;;;;;;;;;;;;;;8.10;65.85;102075.09;4996131;28;19972;-64
2022/03/19 11:22:59;;;;;;;;;;;;;;;8.09;65.64;102074.19;4996931;28;19944;-64
2022/03/19 11:25:44;;;;;;;;;;;;;;;8.10;65.67;102068.22;4995914;28;19972;-64
2022/03/19 11:28:29;;;;;;;;;;;;;;;8.12;65.69;102076.06;4995552;28;20436;-64
2022/03/19 11:31:15;;;;;;;;;;;;;;;8.12;65.66;102063.16;4997049;28;19924;-65
2022/03/19 11:34:12;;;;;;;;;;;;;;;8.14;65.71;102070.19;4995565;28;19944;-64
2022/03/19 11:36:57;;;;;;;;;;;;;;;8.13;65.55;102064.94;4995384;28;20021;-64
2022/03/19 11:40:00;;;;;;;;;;;;;;;8.13;65.60;102058.09;4996539;28;19925;-64
2022/03/19 11:42:54;;;;;;;;;;;;;;;8.15;65.67;102058.16;4996278;28;19980;-64
2022/03/19 11:45:39;;;;;;;;;;;;;;;8.15;65.45;102056.50;4995326;28;19925;-64
2022/03/19 11:48:35;;;;;;;;;;;;;;;8.15;65.44;102059.06;4996477;28;19924;-64
2022/03/19 11:51:24;;;;;;;;;;;;;;;8.16;65.38;102050.53;4995145;28;20011;-67
2022/03/19 11:54:11;;;;;;;;;;;;;;;8.15;65.39;102043.56;4995807;28;19924;-64
2022/03/19 11:56:54;;;;;;;;;;;;;;;8.18;65.38;102043.72;4995868;28;20424;-64
2022/03/19 11:59:45;;;;;;;;;;;;;;;8.18;65.34;102033.41;4996065;28;20384;-64
2022/03/19 12:02:32;;;;;;;;;;;;;;;8.18;65.33;102028.22;4994844;28;19928;-64
2022/03/19 12:05:17;;;;;;;;;;;;;;;8.19;65.24;102024.84;4995489;28;19940;-64
2022/03/19 12:08:09;;;;;;;;;;;;;;;8.19;65.22;102024.84;4996075;28;19981;-64
2022/03/19 12:11:01;;;;;;;;;;;;;;;8.19;65.24;102030.00;4995145;28;19972;-65
2022/03/19 12:13:49;;;;;;;;;;;;;;;8.20;65.07;102015.41;4994804;28;20352;-65
2022/03/19 12:16:38;;;;;;;;;;;;;;;8.20;65.17;102011.13;4995133;28;19996;-64
2022/03/19 12:19:42;;;;;;;;;;;;;;;8.21;65.14;102010.31;4995137;28;19924;-64
2022/03/19 12:22:31;;;;;;;;;;;;;;;8.22;65.26;101998.31;4994655;28;20391;-64
2022/03/19 12:25:21;;;;;;;;;;;;;;;8.21;65.39;102000.00;4994323;28;19925;-64
2022/03/19 12:28:05;;;;;;;;;;;;;;;8.21;65.21;101991.38;4994856;28;19924;-64
2022/03/19 12:30:49;;;;;;;;;;;;;;;8.24;65.15;101983.81;4995441;28;19980;-64
2022/03/19 12:33:34;;;;;;;;;;;;;;;8.25;65.17;101971.75;4995880;28;19943;-64
2022/03/19 12:36:19;;;;;;;;;;;;;;;8.25;65.04;101974.34;4994570;28;20408;-64
2022/03/19 12:39:04;;;;;;;;;;;;;;;8.25;65.17;101962.34;4994793;28;19928;-64
2022/03/19 12:41:48;;;;;;;;;;;;;;;8.25;65.25;101941.66;4994210;28;20380;-64
2022/03/19 12:44:36;;;;;;;;;;;;;;;8.26;64.94;101945.13;4995400;28;19925;-65
2022/03/19 12:47:19;;;;;;;;;;;;;;;8.28;64.96;101944.41;4994628;28;19925;-64
2022/03/19 12:50:03;;;;;;;;;;;;;;;8.28;64.92;101933.19;4994997;28;19925;-65
2022/03/19 12:52:48;;;;;;;;;;;;;;;8.28;65.13;101925.44;4995179;28;20385;-64
2022/03/19 12:55:32;;;;;;;;;;;;;;;8.28;65.03;101921.16;4994846;28;19963;-64
2022/03/19 12:58:16;;;;;;;;;;;;;;;8.30;64.85;101921.25;4995314;28;20439;-64
2022/03/19 13:01:00;;;;;;;;;;;;;;;8.29;64.65;101912.59;4995249;28;19965;-64
2022/03/19 13:03:44;;;;;;;;;;;;;;;8.30;64.77;101905.75;4994914;28;19928;-64
2022/03/19 13:06:36;;;;;;;;;;;;;;;8.29;64.99;101901.38;4993599;28;20314;-64
2022/03/19 13:09:31;;;;;;;;;;;;;;;8.30;65.05;101895.41;4993315;28;19921;-64
2022/03/19 13:12:16;;;;;;;;;;;;;;;8.30;64.83;101896.28;4995147;28;20396;-65
2022/03/19 13:15:00;;;;;;;;;;;;;;;8.31;64.80;101877.41;4994164;28;19983;-65
2022/03/19 13:17:44;;;;;;;;;;;;;;;8.32;64.64;101875.72;4994855;28;19971;-64
2022/03/19 13:20:28;;;;;;;;;;;;;;;8.32;64.55;101881.75;4994815;28;19940;-64
2022/03/19 13:23:12;;;;;;;;;;;;;;;8.34;64.58;101868.91;4994358;28;20020;-63
2022/03/19 13:25:57;;;;;;;;;;;;;;;8.33;64.69;101862.00;4994392;28;19964;-64
2022/03/19 13:29:01;;;;;;;;;;;;;;;8.34;64.54;101863.75;4994744;28;19940;-65
2022/03/19 13:31:48;;;;;;;;;;;;;;;8.34;64.62;101853.41;4994557;28;20500;-64
2022/03/19 13:34:34;;;;;;;;;;;;;;;8.33;64.70;101839.63;4994508;28;19924;-64
2022/03/19 13:37:21;;;;;;;;;;;;;;;8.34;64.82;101832.75;4993102;28;20340;-64
2022/03/19 13:40:08;;;;;;;;;;;;;;;8.33;64.75;101821.53;4993889;28;19971;-64
2022/03/19 13:42:52;;;;;;;;;;;;;;;8.35;64.40;101819.03;4994907;28;19925;-64
2022/03/19 13:45:36;;;;;;;;;;;;;;;8.35;64.59;101813.84;4993294;28;19924;-64
2022/03/19 13:48:22;;;;;;;;;;;;;;;8.37;64.58;101807.09;4994317;28;19956;-64
2022/03/19 13:51:06;;;;;;;;;;;;;;;8.35;64.34;101801.84;4993588;28;19924;-64
2022/03/19 13:53:52;;;;;;;;;;;;;;;8.36;64.22;101808.78;4994235;28;19928;-65
2022/03/19 13:56:48;;;;;;;;;;;;;;;8.35;64.64;101793.19;4993272;28;19968;-64
2022/03/19 13:59:33;;;;;;;;;;;;;;;8.36;64.39;101790.72;4993951;28;19940;-64
2022/03/19 14:02:23;;;;;;;;;;;;;;;8.35;64.23;101783.75;4993157;28;19925;-64
2022/03/19 14:05:07;;;;;;;;;;;;;;;8.35;64.34;101782.84;4993993;28;19925;-65
2022/03/19 14:07:56;;;;;;;;;;;;;;;8.36;64.53;101775.22;4994319;28;19925;-64
2022/03/19 14:10:44;;;;;;;;;;;;;;;8.37;64.04;101753.72;4993907;28;19955;-64
2022/03/19 14:13:38;;;;;;;;;;;;;;;8.37;63.72;101761.47;4994051;28;20346;-65
2022/03/19 14:16:22;;;;;;;;;;;;;;;8.37;63.77;101752.81;4993393;28;19924;-64
2022/03/19 14:19:06;;;;;;;;;;;;;;;8.38;63.75;101746.84;4993805;28;20302;-64
2022/03/19 14:21:50;;;;;;;;;;;;;;;8.38;63.41;101741.69;4993051;28;19976;-65
2022/03/19 14:24:34;;;;;;;;;;;;;;;8.38;63.72;101736.53;4994272;28;19945;-65
2022/03/19 14:27:18;;;;;;;;;;;;;;;8.38;63.44;101733.94;4993644;28;19924;-64
2022/03/19 14:30:03;;;;;;;;;;;;;;;8.41;63.52;101728.06;4994315;28;20328;-64
2022/03/19 14:32:47;;;;;;;;;;;;;;;8.41;63.48;101728.06;4994128;28;20384;-64
2022/03/19 14:35:37;;;;;;;;;;;;;;;8.39;63.41;101704.72;4994141;28;19940;-64